Bond, Colorado
Current Conditions -  °F | °C
As of 12:15 AM on Sunday 23 Nov 2014 (Local Time) from KEGE Reporting Station
Overcast Overcast  
Wind Chill: 30°   Ceiling: 2300
Heat Index: 34°   Visibility: 10mi
Dew Point: 32°   Wind: 5mph
Humidity: 93%   Direction: 100°E
Pressure: 29.75"   Gusts: NA
Location:  39.87°N, 106.69°W
Report Text: KEGE 230715Z AUTO 10004KT 10SM BKN023 OVC029 01/00 A2975 RMK AO1
Loading
Personal Weather Stations






























Interactive Weather Map New forecast layout! Learn more

10-Day Weather Forecast

Advertisements
Track Severe Weather on mobile